Time;durP1;ratioP1;P1;durP2;ratioP2;P2;SDS_P1;SDS_P2;PMS_P1;PMS_P2;Temp;Humidity;BMP_temperature;BMP_pressure;BME280_temperature;BME280_humidity;BME280_pressure;Samples;Min_cycle;Max_cycle;Signal;HPM_P1;HPM_P2
2021/11/04 03:45:08;;;;;;;46.17;30.15;;;12.40;99.90;;;;;;5896233;23;20809;31
2021/11/04 03:47:36;;;;;;;50.35;32.03;;;12.50;99.90;;;;;;4808487;29;20054;-79
2021/11/04 03:50:05;;;;;;;48.95;29.55;;;12.50;99.90;;;;;;4819974;29;20039;-79
2021/11/04 03:52:31;;;;;;;48.17;29.35;;;12.50;99.90;;;;;;4823520;29;20351;-78
2021/11/04 03:54:58;;;;;;;46.55;30.38;;;12.50;99.90;;;;;;4836445;29;20110;-78
2021/11/04 03:57:28;;;;;;;49.38;30.95;;;12.50;99.90;;;;;;4822388;29;20225;-78
2021/11/04 03:59:54;;;;;;;44.53;28.50;;;12.50;99.90;;;;;;4852861;29;20057;-78
2021/11/04 04:02:22;;;;;;;50.40;31.05;;;12.60;99.90;;;;;;4852173;29;20098;-78
2021/11/04 04:04:54;;;;;;;49.95;30.90;;;12.60;99.90;;;;;;4810696;29;20357;-78
2021/11/04 04:07:32;;;;;;;47.42;31.63;;;12.70;99.90;;;;;;4831527;29;20033;-77
2021/11/04 04:09:59;;;;;;;53.67;31.50;;;12.60;99.90;;;;;;4823698;29;20030;-77
2021/11/04 04:12:26;;;;;;;49.35;32.63;;;12.60;99.90;;;;;;4837240;29;20030;-79
2021/11/04 04:14:53;;;;;;;46.88;30.55;;;12.60;99.90;;;;;;4809022;29;20030;-78
2021/11/04 04:17:21;;;;;;;53.20;31.20;;;12.60;99.90;;;;;;4819033;29;20102;-78
2021/11/04 04:19:50;;;;;;;;;;;12.70;99.90;;;;;;4821341;29;20038;-80
2021/11/04 04:22:16;;;;;;;49.08;30.83;;;12.70;99.90;;;;;;4818953;29;19991;-78
2021/11/04 04:24:42;;;;;;;50.13;32.50;;;12.60;99.90;;;;;;4834999;29;20064;-78
2021/11/04 04:27:08;;;;;;;46.70;32.03;;;12.70;99.90;;;;;;4815466;29;20105;-79
2021/11/04 04:29:33;;;;;;;54.60;35.33;;;12.70;99.90;;;;;;4846016;29;20030;-79
2021/11/04 04:31:59;;;;;;;52.63;33.55;;;12.70;99.90;;;;;;4799785;29;20039;-79
2021/11/04 04:34:26;;;;;;;52.13;32.95;;;12.70;99.90;;;;;;4793404;29;20047;-79
2021/11/04 04:36:52;;;;;;;45.92;31.73;;;12.70;99.90;;;;;;4781881;30;20043;-79
2021/11/04 04:39:19;;;;;;;48.03;31.88;;;12.70;99.90;;;;;;4808965;29;20199;-79
2021/11/04 04:41:45;;;;;;;55.90;33.83;;;12.70;99.90;;;;;;4782009;29;20042;-78
2021/11/04 04:44:11;;;;;;;53.97;31.83;;;12.70;99.90;;;;;;4778853;30;20039;-78
2021/11/04 04:46:36;;;;;;;47.33;31.67;;;12.70;99.90;;;;;;4773187;30;20355;-78
2021/11/04 04:49:02;;;;;;;53.70;31.33;;;12.70;99.90;;;;;;4761323;30;20031;-78
2021/11/04 04:51:28;;;;;;;49.90;32.38;;;12.70;99.90;;;;;;4781827;30;20051;-78
2021/11/04 04:53:54;;;;;;;45.35;32.15;;;12.70;99.90;;;;;;4766576;30;20404;-79
2021/11/04 04:56:20;;;;;;;50.53;32.45;;;12.80;99.90;;;;;;4766788;30;20046;-78
2021/11/04 04:58:46;;;;;;;56.70;34.65;;;12.70;99.90;;;;;;4747795;30;20043;-79
2021/11/04 05:01:12;;;;;;;52.38;35.22;;;12.70;99.90;;;;;;4763780;30;20332;-79
2021/11/04 05:03:37;;;;;;;48.92;34.88;;;12.80;99.90;;;;;;4823777;29;20046;-79
2021/11/04 05:06:03;;;;;;;50.35;33.90;;;12.70;99.90;;;;;;4786685;29;20035;-79
2021/11/04 05:08:29;;;;;;;49.97;34.80;;;12.70;99.90;;;;;;4825243;29;20030;-80
2021/11/04 05:10:55;;;;;;;55.10;36.28;;;12.80;99.90;;;;;;4818083;29;20222;-79
2021/11/04 05:13:20;;;;;;;59.03;36.17;;;12.70;99.90;;;;;;4842230;29;20045;-79
2021/11/04 05:15:46;;;;;;;49.90;36.08;;;12.70;99.90;;;;;;4817717;29;20034;-79
2021/11/04 05:18:12;;;;;;;51.47;34.78;;;12.80;99.90;;;;;;4848264;29;20045;-79
2021/11/04 05:20:38;;;;;;;52.38;33.05;;;12.90;99.90;;;;;;4802388;29;20038;-79
2021/11/04 05:23:05;;;;;;;52.53;33.92;;;12.90;99.90;;;;;;4818144;29;20030;-79
2021/11/04 05:25:31;;;;;;;46.53;31.37;;;12.80;99.90;;;;;;4817624;29;20038;-80
2021/11/04 05:27:57;;;;;;;51.83;31.65;;;12.80;99.90;;;;;;4817929;29;20175;-79
2021/11/04 05:30:23;;;;;;;55.42;31.90;;;12.90;99.90;;;;;;4802971;29;20102;-79
2021/11/04 05:32:49;;;;;;;52.45;31.20;;;12.90;99.90;;;;;;4834258;29;20226;-79
2021/11/04 05:35:17;;;;;;;49.63;31.88;;;12.90;99.90;;;;;;4817760;29;20046;-78
2021/11/04 05:37:44;;;;;;;44.15;30.10;;;12.90;99.90;;;;;;4817593;29;20203;-79
2021/11/04 05:40:10;;;;;;;45.75;29.90;;;12.90;99.90;;;;;;4802276;29;20038;-79
2021/11/04 05:42:36;;;;;;;43.40;27.33;;;12.90;99.90;;;;;;4844481;29;20112;-79
2021/11/04 05:45:02;;;;;;;44.90;28.05;;;12.90;99.90;;;;;;4826365;29;20276;-79
2021/11/04 05:47:28;;;;;;;43.72;27.50;;;13.00;99.90;;;;;;4814319;29;20046;-79
2021/11/04 05:49:54;;;;;;;42.95;27.67;;;13.00;99.90;;;;;;4814793;29;20027;-79
2021/11/04 05:52:19;;;;;;;48.40;27.60;;;13.00;99.90;;;;;;4814538;29;20039;-80
2021/11/04 05:54:46;;;;;;;44.60;25.08;;;13.00;99.90;;;;;;4814561;29;20053;-78
2021/11/04 05:57:12;;;;;;;40.45;26.48;;;13.00;99.90;;;;;;4834904;29;20060;-80
2021/11/04 05:59:37;;;;;;;40.33;24.75;;;13.10;99.90;;;;;;4795859;29;20157;-79
2021/11/04 06:02:03;;;;;;;38.50;25.02;;;13.10;99.90;;;;;;4798961;29;20031;-79
2021/11/04 06:04:34;;;;;;;44.47;25.83;;;13.20;99.90;;;;;;4829627;29;20115;-80
2021/11/04 06:07:03;;;;;;;45.30;21.65;;;13.30;99.90;;;;;;4799362;29;20093;-80
2021/11/04 06:09:31;;;;;;;33.50;22.70;;;13.40;99.90;;;;;;4829498;29;20027;-79
2021/11/04 06:11:57;;;;;;;33.33;21.63;;;13.40;99.90;;;;;;4799222;29;20075;-79
2021/11/04 06:14:24;;;;;;;34.25;22.67;;;13.40;99.90;;;;;;4814401;29;20039;-79
2021/11/04 06:16:53;;;;;;;31.63;22.08;;;13.50;99.90;;;;;;4814491;29;20066;-79
2021/11/04 06:19:20;;;;;;;37.45;21.48;;;13.50;99.90;;;;;;4808612;29;20042;-79
2021/11/04 06:21:46;;;;;;;35.00;20.77;;;13.50;99.90;;;;;;4799544;29;20051;-79
2021/11/04 06:24:12;;;;;;;29.27;20.02;;;13.60;99.90;;;;;;4814232;29;20035;-79
2021/11/04 06:26:38;;;;;;;35.25;21.45;;;13.70;99.90;;;;;;4807824;29;20381;-79
2021/11/04 06:29:04;;;;;;;39.28;21.02;;;13.70;99.90;;;;;;4818592;29;20031;-79
2021/11/04 06:31:30;;;;;;;29.25;19.67;;;13.80;99.90;;;;;;4828628;29;20035;-79
2021/11/04 06:33:56;;;;;;;26.50;17.88;;;13.90;99.90;;;;;;4817443;29;20080;-78
2021/11/04 06:36:23;;;;;;;31.02;17.30;;;13.90;99.90;;;;;;4812651;29;20096;-80
2021/11/04 06:38:50;;;;;;;28.63;17.95;;;13.90;99.90;;;;;;4811600;29;20140;-78
2021/11/04 06:41:16;;;;;;;24.63;17.17;;;14.00;99.90;;;;;;4814258;29;20365;-79
2021/11/04 06:43:43;;;;;;;24.25;17.13;;;14.00;99.90;;;;;;4823012;29;20031;-79
2021/11/04 06:46:12;;;;;;;27.17;16.83;;;14.10;99.90;;;;;;4815689;29;20138;-79
2021/11/04 06:48:43;;;;;;;21.55;15.35;;;14.10;99.90;;;;;;4815958;29;20043;-79
2021/11/04 06:51:12;;;;;;;31.52;14.80;;;14.30;99.90;;;;;;4836299;29;20027;-78
2021/11/04 06:53:55;;;;;;;19.70;13.40;;;14.40;99.90;;;;;;4818802;29;20188;-79
2021/11/04 06:56:23;;;;;;;25.58;12.70;;;14.50;99.90;;;;;;4815207;29;20622;-79
2021/11/04 06:58:50;;;;;;;;;;;14.50;99.90;;;;;;4821146;29;20350;-78
2021/11/04 07:01:18;;;;;;;18.70;13.00;;;14.60;99.90;;;;;;4820321;29;19909;-78
2021/11/04 07:04:02;;;;;;;21.60;11.55;;;14.70;99.90;;;;;;4813661;29;20030;-78
2021/11/04 07:06:30;;;;;;;21.83;11.32;;;14.70;99.90;;;;;;4811758;29;20099;-79
2021/11/04 07:08:58;;;;;;;19.70;11.48;;;14.80;99.90;;;;;;4814262;29;20026;-79
2021/11/04 07:11:25;;;;;;;18.15;11.18;;;14.80;99.90;;;;;;4795767;29;20083;-79
2021/11/04 07:13:52;;;;;;;;;;;14.80;99.90;;;;;;4831456;29;20058;-79
2021/11/04 07:16:21;;;;;;;;;;;14.80;99.90;;;;;;4816561;29;19909;-80
2021/11/04 07:18:49;;;;;;;20.38;11.27;;;14.90;99.90;;;;;;4813661;29;19964;-79
2021/11/04 07:21:22;;;;;;;20.80;11.70;;;14.90;99.90;;;;;;4830775;29;20022;-79
2021/11/04 07:23:52;;;;;;;19.40;11.43;;;14.90;99.90;;;;;;4816301;29;20111;-79
2021/11/04 07:26:23;;;;;;;21.10;12.00;;;15.00;99.90;;;;;;4817228;29;20027;-79
2021/11/04 07:28:53;;;;;;;17.02;11.32;;;15.00;99.90;;;;;;4831376;29;20275;-79
2021/11/04 07:31:22;;;;;;;20.70;14.73;;;14.90;99.90;;;;;;4814703;29;20050;-79
2021/11/04 07:33:49;;;;;;;24.58;15.68;;;14.70;99.90;;;;;;4829949;29;20436;-79
2021/11/04 07:36:17;;;;;;;25.05;15.60;;;14.50;99.90;;;;;;4828355;29;20338;-79
2021/11/04 07:38:47;;;;;;;23.20;16.38;;;14.30;99.30;;;;;;4814714;29;20042;-80
2021/11/04 07:41:13;;;;;;;18.85;14.50;;;13.90;98.30;;;;;;4794794;29;20106;-80
2021/11/04 07:43:39;;;;;;;19.48;14.32;;;13.50;96.50;;;;;;4814872;29;20034;-80
2021/11/04 07:46:05;;;;;;;19.92;14.52;;;13.20;97.80;;;;;;4822814;29;20066;-79
2021/11/04 07:48:31;;;;;;;19.95;12.93;;;13.00;98.00;;;;;;4814304;29;20038;-79
2021/11/04 07:50:58;;;;;;;17.75;12.35;;;12.80;98.50;;;;;;4814661;29;20030;-80
2021/11/04 07:53:24;;;;;;;12.05;9.45;;;12.70;98.70;;;;;;4819044;29;20037;-80
2021/11/04 07:55:51;;;;;;;8.23;5.72;;;12.50;97.80;;;;;;4815021;29;20200;-80
2021/11/04 07:58:17;;;;;;;4.38;2.67;;;12.30;96.70;;;;;;4814041;29;20023;-80
2021/11/04 08:00:43;;;;;;;3.17;2.47;;;12.10;95.90;;;;;;4815219;29;20039;-81
2021/11/04 08:03:10;;;;;;;3.67;2.05;;;11.90;96.30;;;;;;4823433;29;20023;-81
2021/11/04 08:05:36;;;;;;;1.70;1.10;;;11.70;96.30;;;;;;4829816;29;20291;-80
2021/11/04 08:08:04;;;;;;;1.02;0.85;;;11.50;94.90;;;;;;4822972;29;20058;-82
2021/11/04 08:10:30;;;;;;;1.08;0.88;;;11.30;96.40;;;;;;4814026;29;20219;-82
2021/11/04 08:13:02;;;;;;;1.67;0.90;;;11.10;96.80;;;;;;4814347;29;20102;-82
2021/11/04 08:15:28;;;;;;;1.58;0.75;;;11.10;97.90;;;;;;4786031;29;20053;-80
2021/11/04 08:17:54;;;;;;;1.25;0.70;;;10.90;97.60;;;;;;4777558;29;20035;-80
2021/11/04 08:20:20;;;;;;;0.55;0.40;;;10.80;97.60;;;;;;4796969;29;20305;-80
2021/11/04 08:22:46;;;;;;;0.35;0.32;;;10.70;96.60;;;;;;4804549;29;20027;-80
2021/11/04 08:25:11;;;;;;;1.35;0.50;;;10.60;97.50;;;;;;4829770;29;20030;-80
2021/11/04 08:27:37;;;;;;;3.28;0.40;;;10.60;98.40;;;;;;4805790;29;20056;-80
2021/11/04 08:30:05;;;;;;;0.55;0.30;;;10.50;96.50;;;;;;4815157;29;20219;-81
2021/11/04 08:32:31;;;;;;;0.70;0.28;;;10.40;96.90;;;;;;4787015;29;20273;-80
2021/11/04 08:34:57;;;;;;;0.75;0.40;;;10.40;97.50;;;;;;4784768;29;20031;-80
2021/11/04 08:37:23;;;;;;;0.38;0.30;;;10.30;97.60;;;;;;4787481;29;20031;-80
2021/11/04 08:39:49;;;;;;;0.85;0.30;;;10.20;97.70;;;;;;4799932;29;20030;-79
2021/11/04 08:42:15;;;;;;;0.57;0.40;;;10.20;97.60;;;;;;4784805;29;20094;-79
2021/11/04 08:44:42;;;;;;;1.50;0.30;;;10.00;97.90;;;;;;4795021;29;20235;-79
2021/11/04 08:47:09;;;;;;;0.47;0.37;;;10.00;97.80;;;;;;4830389;29;20081;-79
2021/11/04 08:49:35;;;;;;;;;;;9.90;97.20;;;;;;4802970;29;20351;-80
2021/11/04 08:52:01;;;;;;;1.67;0.10;;;10.00;97.90;;;;;;4831891;29;20232;-80
2021/11/04 08:54:28;;;;;;;1.55;0.30;;;9.90;96.50;;;;;;4802603;29;20057;-80
2021/11/04 08:56:54;;;;;;;1.73;0.33;;;9.80;97.10;;;;;;4817549;29;20279;-80
2021/11/04 08:59:20;;;;;;;0.73;0.30;;;9.90;97.40;;;;;;4817734;29;20042;-80
2021/11/04 09:01:47;;;;;;;0.70;0.50;;;9.90;96.80;;;;;;4818186;29;20030;-80
2021/11/04 09:04:13;;;;;;;0.40;0.30;;;9.90;96.90;;;;;;4817657;29;20034;-80
2021/11/04 09:06:40;;;;;;;0.30;0.30;;;9.80;96.50;;;;;;4836647;29;20082;-80
2021/11/04 09:09:10;;;;;;;0.63;0.25;;;9.80;96.60;;;;;;4802545;29;20342;-79
2021/11/04 09:11:36;;;;;;;3.50;0.20;;;9.80;96.30;;;;;;4817660;29;20036;-79
2021/11/04 09:14:03;;;;;;;0.50;0.22;;;9.80;96.10;;;;;;4817474;29;20038;-80
2021/11/04 09:16:29;;;;;;;0.13;0.13;;;9.80;96.70;;;;;;4802543;29;20421;-80
2021/11/04 09:18:56;;;;;;;0.45;0.30;;;9.80;96.60;;;;;;4802487;29;20038;-79
2021/11/04 09:21:24;;;;;;;0.65;0.40;;;9.80;95.80;;;;;;4817465;29;20260;-80
2021/11/04 09:23:50;;;;;;;0.38;0.30;;;9.80;96.10;;;;;;4817230;29;20226;-79
2021/11/04 09:26:16;;;;;;;0.43;0.20;;;9.90;95.90;;;;;;4817041;29;20045;-79
2021/11/04 09:28:42;;;;;;;2.45;0.20;;;9.90;95.30;;;;;;4818319;29;20046;-79
2021/11/04 09:31:09;;;;;;;1.13;0.30;;;9.90;95.10;;;;;;4800929;29;20301;-80
2021/11/04 09:33:37;;;;;;;0.30;0.25;;;9.90;95.30;;;;;;4817167;29;20342;-79
2021/11/04 09:36:03;;;;;;;0.40;0.40;;;10.00;95.20;;;;;;4802170;29;20026;-79
2021/11/04 09:38:30;;;;;;;0.55;0.40;;;10.00;95.20;;;;;;4833708;29;20345;-79
2021/11/04 09:40:56;;;;;;;0.20;0.20;;;10.00;94.40;;;;;;4817423;29;20035;-79
2021/11/04 09:43:22;;;;;;;0.88;0.38;;;10.00;93.80;;;;;;4801960;29;20078;-80
2021/11/04 09:45:48;;;;;;;0.38;0.20;;;10.00;94.30;;;;;;4816466;29;20125;-79
2021/11/04 09:48:15;;;;;;;0.43;0.20;;;9.90;93.80;;;;;;4817284;29;20053;-79
2021/11/04 09:50:43;;;;;;;7.35;0.70;;;10.00;93.90;;;;;;4818034;29;20085;-79
2021/11/04 09:53:09;;;;;;;2.22;0.28;;;10.00;94.40;;;;;;4832293;29;20034;-79
2021/11/04 09:55:35;;;;;;;1.85;0.45;;;10.10;93.80;;;;;;4799528;29;20034;-79
2021/11/04 09:58:02;;;;;;;0.30;0.20;;;10.20;92.90;;;;;;4817379;29;20037;-79
2021/11/04 10:00:35;;;;;;;4.05;0.50;;;10.20;93.60;;;;;;4817204;29;20038;-79
2021/11/04 10:03:06;;;;;;;0.28;0.20;;;10.10;92.80;;;;;;4831764;29;20030;-80
2021/11/04 10:05:41;;;;;;;0.82;0.35;;;10.10;93.00;;;;;;4817893;29;20039;-79
2021/11/04 10:08:09;;;;;;;0.38;0.20;;;10.20;92.70;;;;;;4820853;29;20328;-79
2021/11/04 10:10:35;;;;;;;1.10;0.40;;;10.30;92.70;;;;;;4831077;29;20106;-79
2021/11/04 10:13:04;;;;;;;0.90;0.50;;;10.30;92.90;;;;;;4820375;29;20026;-79
2021/11/04 10:15:32;;;;;;;0.25;0.20;;;10.40;92.50;;;;;;4836296;29;20034;-79
2021/11/04 10:18:14;;;;;;;2.08;0.20;;;10.50;92.70;;;;;;4834302;29;20214;-79
2021/11/04 10:20:41;;;;;;;1.10;0.38;;;10.60;92.30;;;;;;4820205;29;20053;-79
2021/11/04 10:23:10;;;;;;;0.47;0.20;;;10.50;91.50;;;;;;4793192;29;20030;-78
2021/11/04 10:25:36;;;;;;;2.78;0.30;;;10.50;91.40;;;;;;4819734;29;20073;-79
2021/11/04 10:28:36;;;;;;;3.40;0.40;;;10.60;91.90;;;;;;4815847;29;20026;-80
2021/11/04 10:31:03;;;;;;;2.83;0.30;;;10.60;91.40;;;;;;4792207;30;20044;-78
2021/11/04 10:33:30;;;;;;;0.43;0.40;;;10.70;91.60;;;;;;4777163;30;20123;-80
2021/11/04 10:36:19;;;;;;;0.35;0.35;;;10.70;91.60;;;;;;4797670;29;20281;-78
2021/11/04 10:38:47;;;;;;;3.10;0.20;;;10.60;92.00;;;;;;4811738;29;20297;-79
2021/11/04 10:41:23;;;;;;;0.40;0.30;;;10.60;92.00;;;;;;4801020;29;20098;-79
2021/11/04 10:43:54;;;;;;;4.18;0.50;;;10.60;91.30;;;;;;4794784;29;20031;-78
2021/11/04 10:46:20;;;;;;;2.58;0.40;;;10.70;91.90;;;;;;4776276;30;20260;-80
2021/11/04 10:48:54;;;;;;;1.02;0.50;;;10.80;91.80;;;;;;4780090;30;20042;-80
2021/11/04 10:51:20;;;;;;;0.68;0.30;;;10.80;91.10;;;;;;4798036;30;20323;-79
2021/11/04 10:53:58;;;;;;;0.32;0.15;;;10.90;91.00;;;;;;4798121;29;20035;-79
2021/11/04 10:56:24;;;;;;;0.10;0.10;;;11.00;90.30;;;;;;4798259;29;20047;-80
2021/11/04 10:59:14;;;;;;;0.30;0.20;;;11.10;90.10;;;;;;4782862;30;20039;-79
2021/11/04 11:01:43;;;;;;;4.38;1.27;;;11.40;90.20;;;;;;4764659;30;20039;-79
2021/11/04 11:04:10;;;;;;;3.22;0.47;;;11.70;89.60;;;;;;4780116;30;20097;-79
2021/11/04 11:06:41;;;;;;;0.65;0.30;;;12.00;88.10;;;;;;4782881;29;20043;-79
2021/11/04 11:09:11;;;;;;;3.67;0.35;;;12.10;85.00;;;;;;4815621;29;20069;-79
2021/11/04 11:11:41;;;;;;;7.03;0.73;;;12.10;84.60;;;;;;4800918;29;20357;-79
2021/11/04 11:14:08;;;;;;;1.25;0.50;;;12.30;84.60;;;;;;4800932;29;20102;-78
2021/11/04 11:16:42;;;;;;;5.65;1.00;;;12.30;82.80;;;;;;4800831;29;20038;-79
2021/11/04 11:19:09;;;;;;;1.92;0.65;;;12.40;83.50;;;;;;4798007;29;20054;-78
2021/11/04 11:21:41;;;;;;;4.18;0.70;;;12.30;83.70;;;;;;4815670;29;20102;-80
2021/11/04 11:24:13;;;;;;;6.20;0.98;;;12.30;82.10;;;;;;4800658;29;20212;-80
2021/11/04 11:26:41;;;;;;;0.52;0.40;;;12.40;83.50;;;;;;4800406;29;20053;-80
2021/11/04 11:29:07;;;;;;;3.92;0.50;;;12.50;83.30;;;;;;4788650;29;20042;-80
2021/11/04 11:31:33;;;;;;;1.23;0.57;;;12.60;82.90;;;;;;4770424;29;20265;-80
2021/11/04 11:34:19;;;;;;;1.05;0.40;;;12.60;81.70;;;;;;4800575;29;20034;-81
2021/11/04 11:37:06;;;;;;;1.15;0.43;;;12.60;83.00;;;;;;4816126;29;20046;-81
2021/11/04 11:39:45;;;;;;;;;;;12.70;82.90;;;;;;4826521;29;20113;-81
2021/11/04 11:42:17;;;;;;;1.05;0.40;;;12.80;82.80;;;;;;4819345;29;19916;-80
2021/11/04 11:44:44;;;;;;;0.85;0.40;;;12.80;80.40;;;;;;4819403;29;20096;-80
2021/11/04 11:47:15;;;;;;;1.25;0.52;;;12.70;82.00;;;;;;4818750;29;20368;-79
2021/11/04 11:49:43;;;;;;;0.57;0.38;;;12.70;82.40;;;;;;4819239;29;20034;-79
2021/11/04 11:52:48;;;;;;;3.33;0.40;;;12.80;81.60;;;;;;4804067;29;20026;-80
2021/11/04 11:55:36;;;;;;;0.32;0.17;;;12.90;81.10;;;;;;4845568;29;20033;-81
2021/11/04 11:58:20;;;;;;;0.50;0.30;;;12.80;80.70;;;;;;4818725;29;20038;-80
2021/11/04 12:00:55;;;;;;;1.02;0.47;;;12.80;80.20;;;;;;4819058;29;20334;-81
2021/11/04 12:03:37;;;;;;;1.30;0.43;;;12.70;80.20;;;;;;4801019;29;20062;-81
2021/11/04 12:06:26;;;;;;;0.85;0.52;;;12.70;80.60;;;;;;4830767;29;20245;-81
2021/11/04 12:08:57;;;;;;;0.50;0.43;;;12.80;80.80;;;;;;4818704;29;20101;-81
2021/11/04 12:11:35;;;;;;;1.25;0.50;;;12.90;80.30;;;;;;4803346;29;20079;-80
2021/11/04 12:14:20;;;;;;;1.88;0.50;;;13.00;81.10;;;;;;4818720;29;20049;-81
2021/11/04 12:17:01;;;;;;;1.13;0.50;;;13.10;80.00;;;;;;4846254;29;20034;-80
2021/11/04 12:19:42;;;;;;;1.02;0.40;;;13.10;78.90;;;;;;4833799;29;20031;-80
2021/11/04 12:22:17;;;;;;;0.60;0.40;;;13.00;77.80;;;;;;4830957;29;20038;-80
2021/11/04 12:24:50;;;;;;;2.35;0.30;;;12.90;77.90;;;;;;4834322;29;20030;-81
2021/11/04 12:27:17;;;;;;;2.13;0.50;;;12.90;76.80;;;;;;4815508;29;20038;-80
2021/11/04 12:29:44;;;;;;;1.80;0.40;;;12.70;76.40;;;;;;4824475;29;20029;-81
2021/11/04 12:32:14;;;;;;;2.47;0.30;;;12.80;78.20;;;;;;4825469;29;20273;-80
2021/11/04 12:34:52;;;;;;;0.68;0.50;;;12.70;77.00;;;;;;4799615;29;20019;-80
2021/11/04 12:37:18;;;;;;;0.40;0.30;;;12.70;76.90;;;;;;4824414;29;20038;-80
2021/11/04 12:39:46;;;;;;;0.73;0.30;;;12.70;76.40;;;;;;4787078;29;20270;-80
2021/11/04 12:42:16;;;;;;;1.52;0.40;;;12.70;77.20;;;;;;4794942;29;20038;-80
2021/11/04 12:44:44;;;;;;;0.43;0.30;;;12.80;77.40;;;;;;4801930;29;20045;-80
2021/11/04 12:47:10;;;;;;;0.70;0.50;;;12.80;75.80;;;;;;4815853;29;20346;-80
2021/11/04 12:49:41;;;;;;;1.40;0.40;;;12.90;74.40;;;;;;4812300;29;20363;-80
2021/11/04 12:52:09;;;;;;;2.78;0.20;;;12.90;74.90;;;;;;4817817;29;20296;-80
2021/11/04 12:54:37;;;;;;;0.57;0.40;;;12.90;75.50;;;;;;4805092;29;20037;-80
2021/11/04 12:57:08;;;;;;;1.98;0.50;;;13.00;75.80;;;;;;4832385;29;20125;-80
2021/11/04 12:59:36;;;;;;;1.08;0.47;;;13.10;74.40;;;;;;4816059;29;20049;-80
2021/11/04 13:02:07;;;;;;;2.03;0.60;;;13.00;73.50;;;;;;4827823;29;20078;-81
2021/11/04 13:04:42;;;;;;;0.40;0.35;;;13.00;73.40;;;;;;4813407;29;20092;-82
2021/11/04 13:07:14;;;;;;;0.90;0.40;;;13.00;73.20;;;;;;4831358;29;20059;-81
2021/11/04 13:09:48;;;;;;;3.17;0.50;;;13.10;74.30;;;;;;4835247;29;20059;-80
2021/11/04 13:12:20;;;;;;;0.75;0.35;;;13.10;73.60;;;;;;4819664;29;20047;-80
2021/11/04 13:14:59;;;;;;;3.50;0.55;;;13.10;72.40;;;;;;4823241;29;20034;-80
2021/11/04 13:17:44;;;;;;;4.45;0.57;;;13.20;73.30;;;;;;4830458;29;20038;-80
2021/11/04 13:20:20;;;;;;;0.60;0.38;;;13.20;72.10;;;;;;4821457;29;20314;-80
2021/11/04 13:22:52;;;;;;;3.95;0.77;;;13.30;73.20;;;;;;4820046;29;20395;-80
2021/11/04 13:25:22;;;;;;;0.43;0.38;;;13.30;71.00;;;;;;4815798;29;20034;-80
2021/11/04 13:27:55;;;;;;;0.98;0.40;;;13.30;70.20;;;;;;4826187;29;20097;-80
2021/11/04 13:30:43;;;;;;;2.10;0.60;;;13.20;70.20;;;;;;4838713;29;20030;-80
2021/11/04 13:33:13;;;;;;;1.02;0.22;;;13.10;71.20;;;;;;4836356;29;20030;-80
2021/11/04 13:35:45;;;;;;;0.47;0.30;;;12.90;69.10;;;;;;4780728;29;20237;-80
2021/11/04 13:38:19;;;;;;;2.63;0.60;;;12.90;70.40;;;;;;4842589;29;20330;-80
2021/11/04 13:40:54;;;;;;;0.55;0.32;;;12.70;71.00;;;;;;4831895;29;20042;-80
2021/11/04 13:43:39;;;;;;;0.55;0.38;;;12.80;70.90;;;;;;4823817;29;20030;-79
2021/11/04 13:46:17;;;;;;;3.35;0.40;;;12.70;70.70;;;;;;4838096;29;20353;-81
2021/11/04 13:48:44;;;;;;;0.40;0.30;;;12.60;70.00;;;;;;4814243;29;20245;-79
2021/11/04 13:51:28;;;;;;;;;;;12.60;71.40;;;;;;4827517;29;20034;-79
2021/11/04 13:54:13;;;;;;;0.43;0.30;;;12.50;72.20;;;;;;4834556;29;19916;-80
2021/11/04 13:56:41;;;;;;;1.15;0.60;;;12.40;71.20;;;;;;4828791;29;20062;-81
2021/11/04 13:59:07;;;;;;;0.60;0.50;;;12.50;72.70;;;;;;4813008;29;20058;-81
2021/11/04 14:01:33;;;;;;;1.05;0.60;;;12.50;73.60;;;;;;4805471;29;20115;-81
2021/11/04 14:04:12;;;;;;;1.73;0.47;;;12.50;74.40;;;;;;4816788;29;20034;-81
2021/11/04 14:06:46;;;;;;;1.33;0.32;;;12.50;74.10;;;;;;4832340;29;20042;-80
2021/11/04 14:09:26;;;;;;;3.63;0.75;;;12.60;74.70;;;;;;4817320;29;20033;-81
2021/11/04 14:12:07;;;;;;;0.70;0.50;;;12.60;74.60;;;;;;4822563;29;20034;-81
2021/11/04 14:14:44;;;;;;;2.05;0.50;;;12.50;75.00;;;;;;4806273;29;20342;-81
2021/11/04 14:17:11;;;;;;;3.20;0.47;;;12.60;75.10;;;;;;4816966;29;20035;-80
2021/11/04 14:19:37;;;;;;;0.77;0.57;;;12.60;75.00;;;;;;4816978;29;20038;-80
2021/11/04 14:22:07;;;;;;;2.73;0.67;;;12.60;72.90;;;;;;4832691;29;20046;-81
2021/11/04 14:24:32;;;;;;;0.93;0.63;;;12.50;74.10;;;;;;4817431;29;20287;-81
2021/11/04 14:27:00;;;;;;;3.22;0.90;;;12.50;72.80;;;;;;4816908;29;20042;-80
2021/11/04 14:29:25;;;;;;;;;;;12.50;74.70;;;;;;4802467;29;20025;-81
2021/11/04 14:31:54;;;;;;;1.97;0.70;;;12.60;74.70;;;;;;4821015;29;19944;-80
2021/11/04 14:34:22;;;;;;;1.95;0.68;;;12.50;74.50;;;;;;4816905;29;20062;-81
2021/11/04 14:36:50;;;;;;;0.80;0.50;;;12.60;75.10;;;;;;4836581;29;20225;-80
2021/11/04 14:39:17;;;;;;;2.17;0.60;;;12.60;74.70;;;;;;4839201;29;20088;-81
2021/11/04 14:41:43;;;;;;;;;;;12.60;75.00;;;;;;4829534;29;20379;-81
2021/11/04 14:44:09;;;;;;;0.60;0.60;;;12.60;75.10;;;;;;4822341;29;19976;-81
2021/11/04 14:46:35;;;;;;;1.85;0.75;;;12.60;73.60;;;;;;4797671;29;20346;-80
2021/11/04 14:49:01;;;;;;;1.15;0.57;;;12.50;73.40;;;;;;4798291;29;20066;-80
2021/11/04 14:51:27;;;;;;;0.90;0.50;;;12.60;73.80;;;;;;4814003;29;20031;-81
2021/11/04 14:53:53;;;;;;;1.77;0.43;;;12.60;72.60;;;;;;4816482;29;20030;-81
2021/11/04 14:56:19;;;;;;;0.85;0.63;;;12.60;72.70;;;;;;4816687;29;20046;-81
2021/11/04 14:58:45;;;;;;;0.50;0.50;;;12.50;71.50;;;;;;4818658;29;20110;-80
2021/11/04 15:01:10;;;;;;;1.27;0.63;;;12.50;72.50;;;;;;4816287;29;20035;-81
2021/11/04 15:03:36;;;;;;;0.68;0.40;;;12.50;71.80;;;;;;4816178;29;20389;-80
2021/11/04 15:06:02;;;;;;;0.98;0.65;;;12.40;72.70;;;;;;4816691;29;20159;-80
2021/11/04 15:08:28;;;;;;;3.45;0.70;;;12.50;73.00;;;;;;4816222;29;20085;-80
2021/11/04 15:10:55;;;;;;;2.20;0.60;;;12.40;72.80;;;;;;4831304;29;20038;-79
2021/11/04 15:13:23;;;;;;;0.93;0.60;;;12.40;72.90;;;;;;4815881;29;20346;-80
2021/11/04 15:15:49;;;;;;;1.02;0.50;;;12.40;72.90;;;;;;4816681;29;20053;-80
2021/11/04 15:18:17;;;;;;;0.55;0.45;;;12.30;73.50;;;;;;4799469;29;20066;-80
2021/11/04 15:20:43;;;;;;;0.70;0.60;;;12.40;74.10;;;;;;4785175;29;20135;-81
2021/11/04 15:23:11;;;;;;;1.00;0.77;;;12.40;73.80;;;;;;4831238;29;20039;-81
2021/11/04 15:25:37;;;;;;;1.52;0.90;;;12.30;72.50;;;;;;4815886;29;20413;-81
2021/11/04 15:28:03;;;;;;;1.15;0.77;;;12.30;73.10;;;;;;4800062;29;20090;-81
2021/11/04 15:30:30;;;;;;;1.60;0.65;;;12.30;74.00;;;;;;4830995;29;20098;-81
2021/11/04 15:32:55;;;;;;;1.90;0.68;;;12.30;72.30;;;;;;4816500;29;20042;-81
2021/11/04 15:35:21;;;;;;;1.30;0.90;;;12.30;73.00;;;;;;4790112;29;20231;-81
2021/11/04 15:37:48;;;;;;;0.65;0.52;;;12.30;73.30;;;;;;4826862;29;20042;-81
2021/11/04 15:40:15;;;;;;;1.02;0.50;;;12.20;72.60;;;;;;4801915;29;20054;-81
2021/11/04 15:42:41;;;;;;;2.10;0.67;;;12.20;73.00;;;;;;4830014;29;20062;-80
2021/11/04 15:45:07;;;;;;;2.13;1.25;;;12.20;73.00;;;;;;4785200;29;20050;-81
2021/11/04 15:47:37;;;;;;;1.80;0.60;;;12.20;74.00;;;;;;4813503;29;20165;-81
2021/11/04 15:50:10;;;;;;;1.38;0.80;;;12.20;74.10;;;;;;4800978;29;20381;-80
2021/11/04 15:52:37;;;;;;;5.80;0.93;;;12.30;73.60;;;;;;4792057;29;20374;-81
2021/11/04 15:55:04;;;;;;;3.72;0.52;;;12.30;73.70;;;;;;4827671;29;20042;-81
2021/11/04 15:57:33;;;;;;;;;;;12.30;73.40;;;;;;4812499;29;20244;-80
2021/11/04 16:00:00;;;;;;;2.38;0.98;;;12.30;73.90;;;;;;4800031;29;20185;-80
2021/11/04 16:02:26;;;;;;;;;;;12.20;73.80;;;;;;4785853;29;20037;-81
2021/11/04 16:04:52;;;;;;;1.30;0.98;;;12.20;73.80;;;;;;4814522;29;20090;-81
2021/11/04 16:07:19;;;;;;;1.45;0.70;;;12.20;73.10;;;;;;4815330;29;20269;-81
2021/11/04 16:09:45;;;;;;;1.00;0.52;;;12.30;73.30;;;;;;4800028;29;20031;-82
2021/11/04 16:12:11;;;;;;;1.30;0.80;;;12.20;72.70;;;;;;4795770;29;20350;-80
2021/11/04 16:14:37;;;;;;;1.77;0.80;;;12.30;73.40;;;;;;4828935;29;20034;-80
2021/11/04 16:17:03;;;;;;;3.45;0.73;;;12.20;73.20;;;;;;4782018;29;20030;-80
2021/11/04 16:19:29;;;;;;;1.33;0.80;;;12.30;73.60;;;;;;4775177;30;20049;-81
2021/11/04 16:21:55;;;;;;;1.58;0.90;;;12.20;73.50;;;;;;4812306;29;20070;-81
2021/11/04 16:24:21;;;;;;;1.88;0.70;;;12.20;75.00;;;;;;4828163;29;20062;-81
2021/11/04 16:26:47;;;;;;;0.82;0.60;;;12.20;75.30;;;;;;4797902;29;20050;-81
2021/11/04 16:29:15;;;;;;;4.78;0.60;;;12.20;75.60;;;;;;4802477;29;20031;-81
2021/11/04 16:31:42;;;;;;;0.93;0.60;;;12.20;75.60;;;;;;4824723;29;20031;-81
2021/11/04 16:34:09;;;;;;;;;;;12.10;77.30;;;;;;4827795;29;20043;-81
2021/11/04 16:37:02;;;;;;;1.27;0.65;;;12.10;78.50;;;;;;4819018;29;19913;-81